METAR AND TAF INFORMATION

METAR FOR TFFF
ADDS - METARS form results

(0804 UTC 29 September 2022)
Data provider http://aviationweather.gov/metar/data/
 
METAR text: TFFF 290800Z AUTO 11003KT 070V130 9999 ///CB 24/23 Q1010
Conditions at: TFFF (LE LAMENTIN/MART, MQ) observed 0800 UTC 29 September 2022
Temperature: 24.0°C (75°F)
Dewpoint: 23.0°C (73°F) [RH = 94%]
Pressure (altimeter): 29.82 inches Hg (1010.0 mb)
Winds: from the ESE (110 degrees) at 3 MPH (3 knots; 1.5 m/s)
Visibility: 6 or more miles (10+ km)
Ceiling: unknown
Clouds: missing
Weather: no significant weather observed at this time

METAR text: TFFF 290730Z AUTO 16002KT 9999 FEW058/// ///CB 24/23 Q1010
Conditions at: TFFF (LE LAMENTIN/MART, MQ) observed 0730 UTC 29 September 2022
Temperature: 24.0°C (75°F)
Dewpoint: 23.0°C (73°F) [RH = 94%]
Pressure (altimeter): 29.82 inches Hg (1010.0 mb)
Winds: from the SSE (160 degrees) at 2 MPH (2 knots; 1.0 m/s)
Visibility: 6 or more miles (10+ km)
Ceiling: at least 12,000 feet AGL
Clouds: few clouds at 5800 feet AGL
Weather: no significant weather observed at this time

 

AIRPORT MAP

 

RUNWAY INFORMATION

Runway 10 Runway length 10826 ft Runway width 147 ft
Runway elevation 10 ft Runway displaced threshold 0 ft Runway heading 80
Runway 28 Runway length 10826 ft Runway width 147 ft
Runway elevation 14 ft Runway displaced threshold 984 ft Runway heading 260

 

AIRPORT FREQUENCIES

Type APP Name FORT DE FR Frequency 121 MHZ
Type ATIS Name ATIS Frequency 127.85 MHZ
Type GND Name GND Frequency 121.9 MHZ
Type TWR Name FORT DE FR Frequency 118.5 MHZ

 

AIRPORT NEAR NAVIGATION AIDS

Type VOR-DME Name Fort De France Frequency 113300 KHZ
Type NDB Name Fort De France Frequency 329 KHZ